sensor_id;sensor_type;location;lat;lon;timestamp;pressure;altitude;pressure_sealevel;temperature;humidity
75886;BME280;64561;44.018;10.144;2024-03-23T00:53:14;101616.34;;;10.85;88.18
75886;BME280;64561;44.018;10.144;2024-03-23T00:55:44;101624.88;;;10.84;88.54
75886;BME280;64561;44.018;10.144;2024-03-23T00:58:10;101619.78;;;10.86;88.32
75886;BME280;64561;44.018;10.144;2024-03-23T01:00:36;101614.84;;;10.90;88.39
75886;BME280;64561;44.018;10.144;2024-03-23T01:03:03;101613.97;;;10.90;88.75
75886;BME280;64561;44.018;10.144;2024-03-23T01:05:31;101611.22;;;10.85;87.88
75886;BME280;64561;44.018;10.144;2024-03-23T01:08:00;101611.34;;;10.88;87.18
75886;BME280;64561;44.018;10.144;2024-03-23T01:10:37;101617.50;;;10.93;87.43
75886;BME280;64561;44.018;10.144;2024-03-23T01:13:03;101611.53;;;10.93;87.15
75886;BME280;64561;44.018;10.144;2024-03-23T01:15:30;101605.22;;;10.83;86.75
75886;BME280;64561;44.018;10.144;2024-03-23T01:17:56;101606.13;;;10.85;86.01
75886;BME280;64561;44.018;10.144;2024-03-23T01:20:22;101606.88;;;10.83;87.29
75886;BME280;64561;44.018;10.144;2024-03-23T01:22:49;101594.66;;;10.74;86.95
75886;BME280;64561;44.018;10.144;2024-03-23T01:25:15;101593.81;;;10.75;87.90
75886;BME280;64561;44.018;10.144;2024-03-23T01:27:43;101603.19;;;10.74;86.36
75886;BME280;64561;44.018;10.144;2024-03-23T01:30:09;101603.34;;;10.79;86.54
75886;BME280;64561;44.018;10.144;2024-03-23T01:32:36;101589.78;;;10.82;86.68
75886;BME280;64561;44.018;10.144;2024-03-23T01:35:02;101592.44;;;10.85;87.13
75886;BME280;64561;44.018;10.144;2024-03-23T01:37:29;101590.81;;;10.87;87.58
75886;BME280;64561;44.018;10.144;2024-03-23T01:39:58;101592.56;;;10.88;87.69
75886;BME280;64561;44.018;10.144;2024-03-23T01:42:24;101603.97;;;10.97;87.93
75886;BME280;64561;44.018;10.144;2024-03-23T01:44:51;101601.94;;;10.87;87.17
75886;BME280;64561;44.018;10.144;2024-03-23T01:47:17;101602.44;;;10.77;87.37
75886;BME280;64561;44.018;10.144;2024-03-23T01:49:43;101605.66;;;10.71;87.22
75886;BME280;64561;44.018;10.144;2024-03-23T01:52:09;101605.53;;;10.68;88.30
75886;BME280;64561;44.018;10.144;2024-03-23T01:54:36;101604.88;;;10.74;88.66
75886;BME280;64561;44.018;10.144;2024-03-23T01:57:02;101603.09;;;10.71;88.35
75886;BME280;64561;44.018;10.144;2024-03-23T01:59:35;101603.88;;;10.70;88.48
75886;BME280;64561;44.018;10.144;2024-03-23T02:02:01;101604.59;;;10.66;86.81
75886;BME280;64561;44.018;10.144;2024-03-23T02:04:29;101605.75;;;10.50;87.92
75886;BME280;64561;44.018;10.144;2024-03-23T02:06:55;101610.75;;;10.47;87.55
75886;BME280;64561;44.018;10.144;2024-03-23T02:09:27;101616.53;;;10.43;87.77
75886;BME280;64561;44.018;10.144;2024-03-23T02:11:54;101618.88;;;10.37;89.03
75886;BME280;64561;44.018;10.144;2024-03-23T02:14:32;101612.66;;;10.30;89.36
75886;BME280;64561;44.018;10.144;2024-03-23T02:16:59;101614.22;;;10.27;89.66
75886;BME280;64561;44.018;10.144;2024-03-23T02:19:27;101609.28;;;10.32;90.62
75886;BME280;64561;44.018;10.144;2024-03-23T02:21:53;101608.75;;;10.40;90.76
75886;BME280;64561;44.018;10.144;2024-03-23T02:24:19;101614.91;;;10.45;90.37
75886;BME280;64561;44.018;10.144;2024-03-23T02:26:45;101604.47;;;10.39;91.00
75886;BME280;64561;44.018;10.144;2024-03-23T02:29:15;101606.94;;;10.38;92.04
75886;BME280;64561;44.018;10.144;2024-03-23T02:31:41;101607.03;;;10.39;92.33
75886;BME280;64561;44.018;10.144;2024-03-23T02:34:10;101593.34;;;10.39;92.43
75886;BME280;64561;44.018;10.144;2024-03-23T02:36:36;101595.06;;;10.38;93.34
75886;BME280;64561;44.018;10.144;2024-03-23T02:39:03;101601.66;;;10.33;93.97
75886;BME280;64561;44.018;10.144;2024-03-23T02:41:29;101600.06;;;10.35;93.96
75886;BME280;64561;44.018;10.144;2024-03-23T02:44:16;101596.38;;;10.28;93.05
75886;BME280;64561;44.018;10.144;2024-03-23T02:46:42;101600.34;;;10.22;94.54
75886;BME280;64561;44.018;10.144;2024-03-23T02:49:08;101599.31;;;10.17;94.78
75886;BME280;64561;44.018;10.144;2024-03-23T02:51:34;101590.00;;;10.19;95.17
75886;BME280;64561;44.018;10.144;2024-03-23T02:54:00;101588.44;;;10.22;95.99
75886;BME280;64561;44.018;10.144;2024-03-23T02:56:27;101588.56;;;10.25;95.64
75886;BME280;64561;44.018;10.144;2024-03-23T02:58:53;101588.03;;;10.33;95.78
75886;BME280;64561;44.018;10.144;2024-03-23T03:01:19;101589.63;;;10.30;95.33
75886;BME280;64561;44.018;10.144;2024-03-23T03:03:49;101585.72;;;10.18;97.17
75886;BME280;64561;44.018;10.144;2024-03-23T03:06:25;101590.66;;;10.13;98.55
75886;BME280;64561;44.018;10.144;2024-03-23T03:08:51;101588.22;;;10.16;97.63
75886;BME280;64561;44.018;10.144;2024-03-23T03:11:18;101582.41;;;10.20;97.49
75886;BME280;64561;44.018;10.144;2024-03-23T03:13:44;101587.97;;;10.10;99.84
75886;BME280;64561;44.018;10.144;2024-03-23T03:16:11;101586.41;;;10.14;99.72
75886;BME280;64561;44.018;10.144;2024-03-23T03:18:42;101574.44;;;10.13;99.57
75886;BME280;64561;44.018;10.144;2024-03-23T03:21:08;101581.50;;;10.20;99.71
75886;BME280;64561;44.018;10.144;2024-03-23T03:23:38;101578.84;;;10.17;100.00
75886;BME280;64561;44.018;10.144;2024-03-23T03:26:04;101574.66;;;10.19;100.00
75886;BME280;64561;44.018;10.144;2024-03-23T03:28:32;101580.16;;;10.28;100.00
75886;BME280;64561;44.018;10.144;2024-03-23T03:30:59;101571.69;;;10.29;100.00
75886;BME280;64561;44.018;10.144;2024-03-23T03:33:29;101575.34;;;10.36;100.00
75886;BME280;64561;44.018;10.144;2024-03-23T03:35:58;101573.47;;;10.32;100.00
75886;BME280;64561;44.018;10.144;2024-03-23T03:38:24;101580.28;;;10.31;100.00
75886;BME280;64561;44.018;10.144;2024-03-23T03:40:50;101576.72;;;10.27;100.00
75886;BME280;64561;44.018;10.144;2024-03-23T03:43:16;101580.00;;;10.25;100.00
75886;BME280;64561;44.018;10.144;2024-03-23T03:45:51;101566.25;;;10.21;100.00
75886;BME280;64561;44.018;10.144;2024-03-23T03:48:17;101567.06;;;10.20;100.00
75886;BME280;64561;44.018;10.144;2024-03-23T03:50:43;101567.72;;;10.15;100.00
75886;BME280;64561;44.018;10.144;2024-03-23T03:53:10;101571.16;;;10.17;100.00
75886;BME280;64561;44.018;10.144;2024-03-23T03:55:36;101574.00;;;10.23;100.00
75886;BME280;64561;44.018;10.144;2024-03-23T03:58:02;101580.72;;;10.21;100.00
75886;BME280;64561;44.018;10.144;2024-03-23T04:00:28;101575.38;;;10.15;100.00
75886;BME280;64561;44.018;10.144;2024-03-23T04:02:55;101582.22;;;10.16;100.00
75886;BME280;64561;44.018;10.144;2024-03-23T04:05:21;101586.28;;;10.11;100.00
75886;BME280;64561;44.018;10.144;2024-03-23T04:07:47;101588.97;;;10.14;100.00
75886;BME280;64561;44.018;10.144;2024-03-23T04:10:14;101593.03;;;10.08;100.00
75886;BME280;64561;44.018;10.144;2024-03-23T04:12:41;101591.28;;;10.07;100.00
75886;BME280;64561;44.018;10.144;2024-03-23T04:15:08;101593.50;;;9.98;100.00
75886;BME280;64561;44.018;10.144;2024-03-23T04:17:34;101595.28;;;10.01;100.00
75886;BME280;64561;44.018;10.144;2024-03-23T04:20:02;101585.69;;;9.95;100.00
75886;BME280;64561;44.018;10.144;2024-03-23T04:22:30;101592.25;;;9.89;100.00
75886;BME280;64561;44.018;10.144;2024-03-23T04:24:57;101589.59;;;9.85;100.00
75886;BME280;64561;44.018;10.144;2024-03-23T04:27:23;101587.84;;;9.84;100.00
75886;BME280;64561;44.018;10.144;2024-03-23T04:29:50;101582.78;;;9.86;100.00
75886;BME280;64561;44.018;10.144;2024-03-23T04:32:17;101588.13;;;9.92;100.00
75886;BME280;64561;44.018;10.144;2024-03-23T04:34:44;101582.91;;;9.89;100.00
75886;BME280;64561;44.018;10.144;2024-03-23T04:37:11;101578.38;;;9.82;100.00
75886;BME280;64561;44.018;10.144;2024-03-23T04:39:37;101587.00;;;9.84;100.00
75886;BME280;64561;44.018;10.144;2024-03-23T04:42:05;101580.44;;;9.91;100.00
75886;BME280;64561;44.018;10.144;2024-03-23T04:44:31;101572.00;;;9.93;100.00
75886;BME280;64561;44.018;10.144;2024-03-23T04:46:57;101575.31;;;9.91;100.00
75886;BME280;64561;44.018;10.144;2024-03-23T04:49:24;101576.09;;;9.90;100.00
75886;BME280;64561;44.018;10.144;2024-03-23T04:51:51;101570.09;;;9.88;100.00
75886;BME280;64561;44.018;10.144;2024-03-23T04:54:17;101570.25;;;9.92;100.00
75886;BME280;64561;44.018;10.144;2024-03-23T04:56:45;101562.81;;;9.98;100.00
75886;BME280;64561;44.018;10.144;2024-03-23T04:59:11;101544.78;;;9.95;100.00
75886;BME280;64561;44.018;10.144;2024-03-23T05:01:38;101555.09;;;9.97;100.00
75886;BME280;64561;44.018;10.144;2024-03-23T05:04:09;101554.50;;;10.04;100.00
75886;BME280;64561;44.018;10.144;2024-03-23T05:06:36;101549.50;;;10.07;100.00
75886;BME280;64561;44.018;10.144;2024-03-23T05:09:02;101554.63;;;10.07;100.00
75886;BME280;64561;44.018;10.144;2024-03-23T05:11:38;101545.97;;;10.03;100.00
75886;BME280;64561;44.018;10.144;2024-03-23T05:14:04;101550.97;;;10.00;100.00
75886;BME280;64561;44.018;10.144;2024-03-23T05:16:31;101555.25;;;10.01;100.00
75886;BME280;64561;44.018;10.144;2024-03-23T05:18:57;101547.47;;;9.98;100.00
75886;BME280;64561;44.018;10.144;2024-03-23T05:21:24;101548.41;;;10.00;100.00
75886;BME280;64561;44.018;10.144;2024-03-23T05:23:50;101538.28;;;10.03;100.00
75886;BME280;64561;44.018;10.144;2024-03-23T05:26:17;101540.22;;;10.09;100.00
75886;BME280;64561;44.018;10.144;2024-03-23T05:28:43;101537.16;;;10.19;100.00
75886;BME280;64561;44.018;10.144;2024-03-23T05:31:10;101546.25;;;10.34;100.00
75886;BME280;64561;44.018;10.144;2024-03-23T05:33:36;101541.56;;;10.44;100.00
75886;BME280;64561;44.018;10.144;2024-03-23T05:36:06;101543.38;;;10.48;100.00
75886;BME280;64561;44.018;10.144;2024-03-23T05:38:35;101544.09;;;10.44;100.00
75886;BME280;64561;44.018;10.144;2024-03-23T05:41:01;101547.69;;;10.49;100.00
75886;BME280;64561;44.018;10.144;2024-03-23T05:43:28;101554.81;;;10.58;100.00
75886;BME280;64561;44.018;10.144;2024-03-23T05:48:20;101568.91;;;10.71;100.00
75886;BME280;64561;44.018;10.144;2024-03-23T05:50:47;101575.63;;;10.67;100.00
75886;BME280;64561;44.018;10.144;2024-03-23T05:53:18;101575.25;;;10.57;100.00
75886;BME280;64561;44.018;10.144;2024-03-23T05:55:44;101582.81;;;10.53;100.00
75886;BME280;64561;44.018;10.144;2024-03-23T05:58:10;101586.78;;;10.45;100.00
75886;BME280;64561;44.018;10.144;2024-03-23T06:00:36;101590.94;;;10.43;100.00
75886;BME280;64561;44.018;10.144;2024-03-23T06:03:02;101590.31;;;10.49;100.00
75886;BME280;64561;44.018;10.144;2024-03-23T06:05:29;101598.22;;;10.55;100.00
75886;BME280;64561;44.018;10.144;2024-03-23T06:07:55;101590.81;;;10.63;100.00
75886;BME280;64561;44.018;10.144;2024-03-23T06:10:21;101590.28;;;10.71;100.00
75886;BME280;64561;44.018;10.144;2024-03-23T06:12:47;101589.63;;;10.77;100.00
75886;BME280;64561;44.018;10.144;2024-03-23T06:15:15;101588.91;;;10.81;100.00
75886;BME280;64561;44.018;10.144;2024-03-23T06:17:41;101588.25;;;10.87;100.00
75886;BME280;64561;44.018;10.144;2024-03-23T06:20:07;101587.59;;;10.92;100.00
75886;BME280;64561;44.018;10.144;2024-03-23T06:22:34;101594.59;;;10.98;100.00
75886;BME280;64561;44.018;10.144;2024-03-23T06:25:00;101587.81;;;10.98;100.00
75886;BME280;64561;44.018;10.144;2024-03-23T06:27:27;101585.41;;;11.03;100.00
75886;BME280;64561;44.018;10.144;2024-03-23T06:29:53;101587.28;;;11.07;100.00
75886;BME280;64561;44.018;10.144;2024-03-23T06:32:21;101579.59;;;11.07;100.00
75886;BME280;64561;44.018;10.144;2024-03-23T06:34:47;101575.31;;;11.08;100.00
75886;BME280;64561;44.018;10.144;2024-03-23T06:37:13;101578.91;;;11.13;100.00
75886;BME280;64561;44.018;10.144;2024-03-23T06:39:39;101575.53;;;11.14;100.00
75886;BME280;64561;44.018;10.144;2024-03-23T06:42:05;101570.66;;;11.21;100.00
75886;BME280;64561;44.018;10.144;2024-03-23T06:44:32;101562.97;;;11.21;100.00
75886;BME280;64561;44.018;10.144;2024-03-23T06:46:58;101557.03;;;11.23;100.00
75886;BME280;64561;44.018;10.144;2024-03-23T06:49:24;101560.66;;;11.29;100.00
75886;BME280;64561;44.018;10.144;2024-03-23T06:51:51;101557.34;;;11.32;100.00
75886;BME280;64561;44.018;10.144;2024-03-23T06:54:19;101560.03;;;11.36;100.00
75886;BME280;64561;44.018;10.144;2024-03-23T06:56:46;101557.84;;;11.47;100.00
75886;BME280;64561;44.018;10.144;2024-03-23T06:59:13;101557.25;;;11.56;100.00
75886;BME280;64561;44.018;10.144;2024-03-23T07:01:39;101560.69;;;11.56;100.00
75886;BME280;64561;44.018;10.144;2024-03-23T07:04:05;101559.25;;;11.64;100.00
75886;BME280;64561;44.018;10.144;2024-03-23T07:06:31;101556.81;;;11.69;100.00
75886;BME280;64561;44.018;10.144;2024-03-23T07:08:58;101547.66;;;11.77;100.00
75886;BME280;64561;44.018;10.144;2024-03-23T07:11:24;101535.25;;;11.89;100.00
75886;BME280;64561;44.018;10.144;2024-03-23T07:13:52;101534.75;;;12.01;100.00
75886;BME280;64561;44.018;10.144;2024-03-23T07:16:20;101532.38;;;12.09;100.00
75886;BME280;64561;44.018;10.144;2024-03-23T07:18:46;101524.16;;;12.19;100.00
75886;BME280;64561;44.018;10.144;2024-03-23T07:21:15;101531.34;;;12.32;100.00
75886;BME280;64561;44.018;10.144;2024-03-23T07:23:45;101528.09;;;12.38;100.00
75886;BME280;64561;44.018;10.144;2024-03-23T07:26:24;101506.78;;;12.41;100.00
75886;BME280;64561;44.018;10.144;2024-03-23T07:28:50;101520.88;;;12.55;100.00
75886;BME280;64561;44.018;10.144;2024-03-23T07:31:19;101524.72;;;12.72;100.00
75886;BME280;64561;44.018;10.144;2024-03-23T07:33:47;101526.75;;;12.84;100.00
75886;BME280;64561;44.018;10.144;2024-03-23T07:36:14;101525.41;;;12.98;100.00
75886;BME280;64561;44.018;10.144;2024-03-23T07:38:42;101529.91;;;13.07;100.00
75886;BME280;64561;44.018;10.144;2024-03-23T07:41:14;101526.72;;;13.16;100.00
75886;BME280;64561;44.018;10.144;2024-03-23T07:43:43;101517.41;;;13.21;100.00
75886;BME280;64561;44.018;10.144;2024-03-23T07:46:09;101521.09;;;13.31;100.00
75886;BME280;64561;44.018;10.144;2024-03-23T07:48:39;101525.63;;;13.41;100.00
75886;BME280;64561;44.018;10.144;2024-03-23T07:51:21;101517.47;;;13.59;100.00
75886;BME280;64561;44.018;10.144;2024-03-23T07:53:48;101516.06;;;13.73;100.00
75886;BME280;64561;44.018;10.144;2024-03-23T07:56:15;101520.63;;;13.86;100.00
75886;BME280;64561;44.018;10.144;2024-03-23T07:58:42;101522.47;;;13.92;100.00
75886;BME280;64561;44.018;10.144;2024-03-23T08:01:13;101524.25;;;13.94;100.00
75886;BME280;64561;44.018;10.144;2024-03-23T08:03:46;101514.16;;;14.04;100.00
75886;BME280;64561;44.018;10.144;2024-03-23T08:06:14;101513.44;;;14.11;100.00
75886;BME280;64561;44.018;10.144;2024-03-23T08:08:41;101511.75;;;14.13;100.00
75886;BME280;64561;44.018;10.144;2024-03-23T08:11:08;101514.47;;;14.19;100.00
75886;BME280;64561;44.018;10.144;2024-03-23T08:13:35;101516.25;;;14.22;100.00
75886;BME280;64561;44.018;10.144;2024-03-23T08:16:02;101521.44;;;14.23;100.00
75886;BME280;64561;44.018;10.144;2024-03-23T08:18:29;101529.09;;;14.22;100.00
75886;BME280;64561;44.018;10.144;2024-03-23T08:23:24;101528.31;;;14.24;100.00
75886;BME280;64561;44.018;10.144;2024-03-23T08:25:52;101523.22;;;14.27;100.00
75886;BME280;64561;44.018;10.144;2024-03-23T08:28:18;101509.56;;;14.31;100.00
75886;BME280;64561;44.018;10.144;2024-03-23T08:30:45;101501.94;;;14.36;100.00
75886;BME280;64561;44.018;10.144;2024-03-23T08:33:11;101494.34;;;14.42;100.00
75886;BME280;64561;44.018;10.144;2024-03-23T08:35:38;101493.03;;;14.64;100.00
75886;BME280;64561;44.018;10.144;2024-03-23T08:38:04;101493.41;;;14.84;100.00
75886;BME280;64561;44.018;10.144;2024-03-23T08:40:30;101491.78;;;14.91;100.00
75886;BME280;64561;44.018;10.144;2024-03-23T08:42:57;101497.03;;;14.97;100.00
75886;BME280;64561;44.018;10.144;2024-03-23T08:45:24;101492.00;;;15.03;100.00
75886;BME280;64561;44.018;10.144;2024-03-23T08:47:51;101487.94;;;15.19;100.00
75886;BME280;64561;44.018;10.144;2024-03-23T08:50:18;101485.50;;;15.26;100.00
75886;BME280;64561;44.018;10.144;2024-03-23T08:52:44;101476.00;;;15.24;100.00
75886;BME280;64561;44.018;10.144;2024-03-23T08:55:10;101480.53;;;15.39;100.00
75886;BME280;64561;44.018;10.144;2024-03-23T08:57:37;101484.03;;;15.44;100.00
75886;BME280;64561;44.018;10.144;2024-03-23T09:00:03;101479.00;;;15.54;100.00
75886;BME280;64561;44.018;10.144;2024-03-23T09:02:32;101465.34;;;15.60;100.00
75886;BME280;64561;44.018;10.144;2024-03-23T09:04:58;101465.59;;;15.78;100.00
75886;BME280;64561;44.018;10.144;2024-03-23T09:07:31;101473.53;;;15.94;100.00
75886;BME280;64561;44.018;10.144;2024-03-23T09:09:57;101462.47;;;16.03;99.55
75886;BME280;64561;44.018;10.144;2024-03-23T09:12:23;101466.84;;;16.07;98.15
75886;BME280;64561;44.018;10.144;2024-03-23T09:14:50;101482.50;;;16.22;96.79
75886;BME280;64561;44.018;10.144;2024-03-23T09:17:17;101484.13;;;16.15;93.38
75886;BME280;64561;44.018;10.144;2024-03-23T09:19:44;101487.47;;;16.05;94.42
75886;BME280;64561;44.018;10.144;2024-03-23T09:22:10;101486.44;;;15.94;95.05
75886;BME280;64561;44.018;10.144;2024-03-23T09:24:36;101483.88;;;15.94;96.54
75886;BME280;64561;44.018;10.144;2024-03-23T09:27:02;101490.66;;;15.87;95.14
75886;BME280;64561;44.018;10.144;2024-03-23T09:29:29;101486.28;;;15.82;95.46
75886;BME280;64561;44.018;10.144;2024-03-23T09:31:56;101474.31;;;15.88;99.62
75886;BME280;64561;44.018;10.144;2024-03-23T09:34:22;101466.69;;;15.96;99.72
75886;BME280;64561;44.018;10.144;2024-03-23T09:36:51;101472.78;;;16.03;98.41
75886;BME280;64561;44.018;10.144;2024-03-23T09:39:18;101475.50;;;16.13;99.76
75886;BME280;64561;44.018;10.144;2024-03-23T09:41:45;101474.72;;;16.20;97.06
75886;BME280;64561;44.018;10.144;2024-03-23T09:44:12;101464.44;;;16.23;94.73
75886;BME280;64561;44.018;10.144;2024-03-23T09:46:38;101451.44;;;16.16;93.13
75886;BME280;64561;44.018;10.144;2024-03-23T09:49:07;101451.44;;;16.16;93.22
75886;BME280;64561;44.018;10.144;2024-03-23T09:51:36;101453.03;;;16.05;92.04
75886;BME280;64561;44.018;10.144;2024-03-23T09:54:03;101450.47;;;16.09;94.25
75886;BME280;64561;44.018;10.144;2024-03-23T09:56:29;101445.38;;;16.15;92.65
75886;BME280;64561;44.018;10.144;2024-03-23T09:59:02;101431.66;;;16.18;93.36
75886;BME280;64561;44.018;10.144;2024-03-23T10:01:30;101441.22;;;16.25;94.07
75886;BME280;64561;44.018;10.144;2024-03-23T10:03:57;101448.03;;;16.21;94.20
75886;BME280;64561;44.018;10.144;2024-03-23T10:06:23;101440.19;;;16.12;94.72
75886;BME280;64561;44.018;10.144;2024-03-23T10:08:52;101441.88;;;16.09;90.81
75886;BME280;64561;44.018;10.144;2024-03-23T10:11:19;101443.47;;;15.96;88.32
75886;BME280;64561;44.018;10.144;2024-03-23T10:13:45;101439.91;;;15.88;89.17
75886;BME280;64561;44.018;10.144;2024-03-23T10:16:25;101439.88;;;15.83;92.71
75886;BME280;64561;44.018;10.144;2024-03-23T10:18:53;101445.00;;;15.80;92.89
75886;BME280;64561;44.018;10.144;2024-03-23T10:21:19;101431.84;;;15.62;94.02
75886;BME280;64561;44.018;10.144;2024-03-23T10:23:45;101443.75;;;15.55;96.52
75886;BME280;64561;44.018;10.144;2024-03-23T10:26:23;101448.00;;;15.50;96.96
75886;BME280;64561;44.018;10.144;2024-03-23T10:31:23;101443.56;;;15.40;99.35
75886;BME280;64561;44.018;10.144;2024-03-23T10:33:49;101441.72;;;15.31;99.39
75886;BME280;64561;44.018;10.144;2024-03-23T10:36:16;101443.38;;;15.26;100.00
75886;BME280;64561;44.018;10.144;2024-03-23T10:38:44;101426.97;;;15.19;100.00
75886;BME280;64561;44.018;10.144;2024-03-23T10:41:13;101431.16;;;15.14;100.00
75886;BME280;64561;44.018;10.144;2024-03-23T10:43:40;101427.72;;;15.14;100.00
75886;BME280;64561;44.018;10.144;2024-03-23T10:46:06;101418.19;;;15.08;100.00
75886;BME280;64561;44.018;10.144;2024-03-23T10:48:34;101414.72;;;15.06;100.00
75886;BME280;64561;44.018;10.144;2024-03-23T10:51:07;101413.91;;;15.08;100.00
75886;BME280;64561;44.018;10.144;2024-03-23T10:53:34;101412.91;;;14.99;100.00
75886;BME280;64561;44.018;10.144;2024-03-23T10:56:01;101417.09;;;14.94;100.00
75886;BME280;64561;44.018;10.144;2024-03-23T10:58:38;101417.91;;;14.90;100.00
75886;BME280;64561;44.018;10.144;2024-03-23T11:01:04;101410.94;;;14.85;100.00
75886;BME280;64561;44.018;10.144;2024-03-23T11:03:44;101421.22;;;14.81;100.00
75886;BME280;64561;44.018;10.144;2024-03-23T11:06:34;101426.38;;;14.82;100.00
75886;BME280;64561;44.018;10.144;2024-03-23T11:09:00;101430.69;;;14.83;99.90
75886;BME280;64561;44.018;10.144;2024-03-23T11:11:27;101430.72;;;14.85;99.42
75886;BME280;64561;44.018;10.144;2024-03-23T11:13:54;101437.47;;;14.80;99.35
75886;BME280;64561;44.018;10.144;2024-03-23T11:16:28;101438.34;;;14.77;99.87
75886;BME280;64561;44.018;10.144;2024-03-23T11:19:36;101423.66;;;14.73;100.00
75886;BME280;64561;44.018;10.144;2024-03-23T11:22:02;101431.38;;;14.72;100.00
75886;BME280;64561;44.018;10.144;2024-03-23T11:24:29;101428.75;;;14.70;100.00
75886;BME280;64561;44.018;10.144;2024-03-23T11:26:57;101426.13;;;14.67;100.00
75886;BME280;64561;44.018;10.144;2024-03-23T11:29:30;101430.47;;;14.70;100.00
75886;BME280;64561;44.018;10.144;2024-03-23T11:31:57;101429.66;;;14.72;100.00
75886;BME280;64561;44.018;10.144;2024-03-23T11:34:24;101422.78;;;14.71;100.00
75886;BME280;64561;44.018;10.144;2024-03-23T11:37:04;101420.16;;;14.68;100.00
75886;BME280;64561;44.018;10.144;2024-03-23T11:39:30;101420.09;;;14.67;100.00
75886;BME280;64561;44.018;10.144;2024-03-23T11:41:57;101404.59;;;14.63;100.00
75886;BME280;64561;44.018;10.144;2024-03-23T11:44:25;101393.44;;;14.63;100.00
75886;BME280;64561;44.018;10.144;2024-03-23T11:46:52;101390.00;;;14.62;100.00
75886;BME280;64561;44.018;10.144;2024-03-23T11:49:28;101377.97;;;14.63;100.00
75886;BME280;64561;44.018;10.144;2024-03-23T11:51:56;101375.41;;;14.64;100.00
75886;BME280;64561;44.018;10.144;2024-03-23T11:54:25;101373.75;;;14.67;100.00
75886;BME280;64561;44.018;10.144;2024-03-23T11:57:04;101372.84;;;14.64;100.00
75886;BME280;64561;44.018;10.144;2024-03-23T12:02:05;101362.47;;;14.60;100.00
75886;BME280;64561;44.018;10.144;2024-03-23T12:04:32;101355.56;;;14.57;100.00
75886;BME280;64561;44.018;10.144;2024-03-23T12:07:20;101349.56;;;14.57;100.00
75886;BME280;64561;44.018;10.144;2024-03-23T12:10:09;101345.09;;;14.48;100.00
75886;BME280;64561;44.018;10.144;2024-03-23T12:12:35;101338.97;;;14.41;100.00
75886;BME280;64561;44.018;10.144;2024-03-23T12:15:06;101345.88;;;14.44;100.00
75886;BME280;64561;44.018;10.144;2024-03-23T12:17:35;101343.19;;;14.38;100.00
75886;BME280;64561;44.018;10.144;2024-03-23T12:20:02;101338.88;;;14.35;100.00
75886;BME280;64561;44.018;10.144;2024-03-23T12:22:30;101336.25;;;14.32;100.00
75886;BME280;64561;44.018;10.144;2024-03-23T12:24:57;101328.47;;;14.31;100.00
75886;BME280;64561;44.018;10.144;2024-03-23T12:27:23;101316.47;;;14.31;100.00
75886;BME280;64561;44.018;10.144;2024-03-23T12:29:51;101319.84;;;14.29;100.00
75886;BME280;64561;44.018;10.144;2024-03-23T12:32:17;101318.13;;;14.28;100.00
75886;BME280;64561;44.018;10.144;2024-03-23T12:34:44;101312.06;;;14.24;100.00
75886;BME280;64561;44.018;10.144;2024-03-23T12:37:10;101306.88;;;14.23;100.00
75886;BME280;64561;44.018;10.144;2024-03-23T12:39:38;101306.88;;;14.21;100.00
75886;BME280;64561;44.018;10.144;2024-03-23T12:42:07;101311.25;;;14.27;100.00
75886;BME280;64561;44.018;10.144;2024-03-23T12:44:33;101307.88;;;14.29;100.00
75886;BME280;64561;44.018;10.144;2024-03-23T12:46:59;101301.88;;;14.30;100.00
75886;BME280;64561;44.018;10.144;2024-03-23T12:49:26;101303.59;;;14.31;100.00
75886;BME280;64561;44.018;10.144;2024-03-23T12:51:54;101293.25;;;14.28;100.00
75886;BME280;64561;44.018;10.144;2024-03-23T12:54:22;101289.00;;;14.32;100.00
75886;BME280;64561;44.018;10.144;2024-03-23T12:56:49;101279.56;;;14.31;100.00
75886;BME280;64561;44.018;10.144;2024-03-23T12:59:16;101288.09;;;14.28;100.00
75886;BME280;64561;44.018;10.144;2024-03-23T13:01:45;101279.47;;;14.25;100.00
75886;BME280;64561;44.018;10.144;2024-03-23T13:04:11;101275.91;;;14.15;100.00
75886;BME280;64561;44.018;10.144;2024-03-23T13:06:38;101275.81;;;14.10;100.00
75886;BME280;64561;44.018;10.144;2024-03-23T13:09:05;101269.84;;;14.11;100.00
75886;BME280;64561;44.018;10.144;2024-03-23T13:11:31;101266.47;;;14.15;100.00
75886;BME280;64561;44.018;10.144;2024-03-23T13:13:58;101264.78;;;14.17;100.00
75886;BME280;64561;44.018;10.144;2024-03-23T13:16:24;101271.00;;;14.30;100.00
75886;BME280;64561;44.018;10.144;2024-03-23T13:18:51;101250.34;;;14.27;100.00
75886;BME280;64561;44.018;10.144;2024-03-23T13:21:17;101261.50;;;14.28;100.00
75886;BME280;64561;44.018;10.144;2024-03-23T13:23:47;101258.03;;;14.24;100.00
75886;BME280;64561;44.018;10.144;2024-03-23T13:26:17;101268.31;;;14.26;100.00
75886;BME280;64561;44.018;10.144;2024-03-23T13:28:43;101256.31;;;14.23;100.00
75886;BME280;64561;44.018;10.144;2024-03-23T13:31:11;101239.84;;;14.15;100.00
75886;BME280;64561;44.018;10.144;2024-03-23T13:33:38;101250.25;;;14.21;100.00
75886;BME280;64561;44.018;10.144;2024-03-23T13:36:06;101246.88;;;14.25;100.00
75886;BME280;64561;44.018;10.144;2024-03-23T13:38:32;101242.56;;;14.24;100.00